createdAt,value
2023-04-03T00:00:46.163Z,2.8
2023-04-03T00:01:54.557Z,2.8
2023-04-03T00:03:03.156Z,2.6
2023-04-03T00:04:11.509Z,2.6
2023-04-03T00:05:19.831Z,2.6
2023-04-03T00:06:28.397Z,2.5
2023-04-03T00:07:36.742Z,2.5
2023-04-03T00:08:45.114Z,2.5
2023-04-03T00:09:53.652Z,3
2023-04-03T00:11:02.046Z,3
2023-04-03T00:12:10.362Z,3
2023-04-03T00:13:18.885Z,2.3
2023-04-03T00:14:27.252Z,2.3
2023-04-03T00:15:35.604Z,2.3
2023-04-03T00:16:44.162Z,2.7
2023-04-03T00:17:52.536Z,2.7
2023-04-03T00:19:00.880Z,2.7
2023-04-03T00:20:09.455Z,2.7
2023-04-03T00:21:17.866Z,2.7
2023-04-03T00:22:26.195Z,2.7
2023-04-03T00:23:34.785Z,1.9
2023-04-03T00:24:43.180Z,1.9
2023-04-03T00:25:51.529Z,1.9
2023-04-03T00:27:00.140Z,2.2
2023-04-03T00:28:08.442Z,2.2
2023-04-03T00:29:16.798Z,2.2
2023-04-03T00:30:25.392Z,2.5
2023-04-03T00:31:33.746Z,2.5
2023-04-03T00:32:42.099Z,2.5
2023-04-03T00:33:50.676Z,2.6
2023-04-03T00:34:59.013Z,2.6
2023-04-03T00:36:07.417Z,2.6
2023-04-03T00:37:15.931Z,2.5
2023-04-03T00:38:24.280Z,2.5
2023-04-03T00:39:32.653Z,2.5
2023-04-03T00:40:41.221Z,2.4
2023-04-03T00:41:49.568Z,2.4
2023-04-03T00:42:57.962Z,2.4
2023-04-03T00:44:06.521Z,2.7
2023-04-03T00:45:14.870Z,2.7
2023-04-03T00:46:23.285Z,2.7
2023-04-03T00:47:31.779Z,2.3
2023-04-03T00:48:40.135Z,2.3
2023-04-03T00:49:48.506Z,2.3
2023-04-03T00:50:57.068Z,2.7
2023-04-03T00:52:05.379Z,2.7
2023-04-03T00:53:13.781Z,2.7
2023-04-03T00:54:22.375Z,2.5
2023-04-03T00:55:30.699Z,2.5
2023-04-03T00:56:39.044Z,2.5
2023-04-03T00:57:47.610Z,2.5
2023-04-03T00:58:55.998Z,2.5
2023-04-03T01:00:04.343Z,2.5
2023-04-03T01:01:12.972Z,2.6
2023-04-03T01:02:21.265Z,2.6
2023-04-03T01:03:29.623Z,2.6
2023-04-03T01:04:38.314Z,2.1
2023-04-03T01:05:46.547Z,2.1
2023-04-03T01:06:54.885Z,2.1
2023-04-03T01:08:03.441Z,2.1
2023-04-03T01:09:11.788Z,2.1
2023-04-03T01:10:20.180Z,2.1
2023-04-03T01:11:28.725Z,2.6
2023-04-03T01:12:37.115Z,2.6
2023-04-03T01:13:45.505Z,2.6
2023-04-03T01:14:54.115Z,3
2023-04-03T01:16:02.478Z,3
2023-04-03T01:17:10.794Z,3
2023-04-03T01:18:19.379Z,2.8
2023-04-03T01:19:27.731Z,2.8
2023-04-03T01:20:36.238Z,2.8
2023-04-03T01:21:44.664Z,2.9
2023-04-03T01:22:53.021Z,2.9
2023-04-03T01:24:01.416Z,2.9
2023-04-03T01:25:09.953Z,2.8
2023-04-03T01:26:19.104Z,2.8
2023-04-03T01:27:27.467Z,2.8
2023-04-03T01:28:36.042Z,2.6
2023-04-03T01:29:44.436Z,2.6
2023-04-03T01:30:52.778Z,2.6
2023-04-03T01:32:01.314Z,2.8
2023-04-03T01:33:09.674Z,2.8
2023-04-03T01:34:18.096Z,2.8
2023-04-03T01:35:26.651Z,2.5
2023-04-03T01:36:35.017Z,2.5
2023-04-03T01:37:43.384Z,2.5
2023-04-03T01:38:51.970Z,3.2
2023-04-03T01:40:00.320Z,3.2
2023-04-03T01:41:08.695Z,3.2
2023-04-03T01:42:17.243Z,3
2023-04-03T01:43:25.603Z,3
2023-04-03T01:44:33.955Z,3
2023-04-03T01:45:42.548Z,2.7
2023-04-03T01:46:50.941Z,2.7
2023-04-03T01:47:59.249Z,2.7
2023-04-03T01:49:07.829Z,3.2
2023-04-03T01:50:16.196Z,3.2
2023-04-03T01:51:24.531Z,3.2
2023-04-03T01:52:33.136Z,3.6
2023-04-03T01:53:41.539Z,3.6
2023-04-03T01:54:49.922Z,3.6
2023-04-03T01:55:58.473Z,3.2
2023-04-03T01:57:06.869Z,3.2
2023-04-03T01:58:15.199Z,3.2
2023-04-03T01:59:23.810Z,3.6
2023-04-03T02:00:32.169Z,3.6
2023-04-03T02:01:40.575Z,3.6
2023-04-03T02:02:49.150Z,3.5
2023-04-03T02:03:57.494Z,3.5
2023-04-03T02:05:05.825Z,3.5
2023-04-03T02:06:14.388Z,3.7
2023-04-03T02:07:22.778Z,3.7
2023-04-03T02:08:31.140Z,3.7
2023-04-03T02:09:39.701Z,3.9
2023-04-03T02:10:48.053Z,3.9
2023-04-03T02:11:56.415Z,3.9
2023-04-03T02:13:04.971Z,3.5
2023-04-03T02:14:13.340Z,3.5
2023-04-03T02:15:21.702Z,3.5
2023-04-03T02:16:30.307Z,3.8
2023-04-03T02:17:38.678Z,3.8
2023-04-03T02:18:48.512Z,3.8
2023-04-03T02:19:56.960Z,3.6
2023-04-03T02:21:05.346Z,3.6
2023-04-03T02:22:13.704Z,3.6
2023-04-03T02:23:22.305Z,3.8
2023-04-03T02:24:30.673Z,3.8
2023-04-03T02:25:39.219Z,3.8
2023-04-03T02:26:47.612Z,3.3
2023-04-03T02:27:55.969Z,3.3
2023-04-03T02:29:04.329Z,3.3
2023-04-03T02:30:12.870Z,3.8
2023-04-03T02:31:21.256Z,3.8
2023-04-03T02:32:29.603Z,3.8
2023-04-03T02:33:38.187Z,3.3
2023-04-03T02:34:46.538Z,3.3
2023-04-03T02:35:54.975Z,3.3
2023-04-03T02:37:03.461Z,3
2023-04-03T02:38:11.830Z,3
2023-04-03T02:39:20.246Z,3
2023-04-03T02:40:28.828Z,3.3
2023-04-03T02:41:37.177Z,3.3
2023-04-03T02:42:45.557Z,3.3
2023-04-03T02:43:54.130Z,3.7
2023-04-03T02:45:02.498Z,3.7
2023-04-03T02:46:10.896Z,3.7
2023-04-03T02:47:19.412Z,3.1
2023-04-03T02:48:27.782Z,3.1
2023-04-03T02:49:36.154Z,3.1
2023-04-03T02:50:44.752Z,3.6
2023-04-03T02:51:53.069Z,3.6
2023-04-03T02:53:01.413Z,3.6
2023-04-03T02:54:10.003Z,3.8
2023-04-03T02:55:18.369Z,3.8
2023-04-03T02:56:26.720Z,3.8
2023-04-03T02:57:35.358Z,3.3
2023-04-03T02:58:43.702Z,3.3
2023-04-03T02:59:52.066Z,3.3
2023-04-03T03:01:00.612Z,3.5
2023-04-03T03:02:08.972Z,3.5
2023-04-03T03:03:17.364Z,3.5
2023-04-03T03:04:25.929Z,3.6
2023-04-03T03:05:34.283Z,3.6
2023-04-03T03:06:43.614Z,3.6
2023-04-03T03:07:51.217Z,3.1
2023-04-03T03:08:59.586Z,3.1
2023-04-03T03:10:07.940Z,3.1
2023-04-03T03:11:16.515Z,3.9
2023-04-03T03:12:24.884Z,3.9
2023-04-03T03:13:33.268Z,3.9
2023-04-03T03:14:41.858Z,3.3
2023-04-03T03:15:50.222Z,3.3
2023-04-03T03:16:58.590Z,3.3
2023-04-03T03:18:07.159Z,2.8
2023-04-03T03:19:15.732Z,2.8
2023-04-03T03:20:24.074Z,2.8
2023-04-03T03:21:32.647Z,2.4
2023-04-03T03:22:41.015Z,2.4
2023-04-03T03:23:49.383Z,2.4
2023-04-03T03:24:57.941Z,2.8
2023-04-03T03:26:06.357Z,2.8
2023-04-03T03:27:14.739Z,2.8
2023-04-03T03:28:23.282Z,2.7
2023-04-03T03:29:31.676Z,2.7
2023-04-03T03:30:40.080Z,2.7
2023-04-03T03:31:48.711Z,2.5
2023-04-03T03:32:57.002Z,2.5
2023-04-03T03:34:05.366Z,2.5
2023-04-03T03:35:13.925Z,3.3
2023-04-03T03:36:22.295Z,3.3
2023-04-03T03:37:30.661Z,3.3
2023-04-03T03:38:39.261Z,3.3
2023-04-03T03:39:47.612Z,3.3
2023-04-03T03:40:56.025Z,3.3
2023-04-03T03:42:04.537Z,3.2
2023-04-03T03:43:12.923Z,3.2
2023-04-03T03:44:21.281Z,3.2
2023-04-03T03:45:29.876Z,3
2023-04-03T03:46:38.256Z,3
2023-04-03T03:47:46.619Z,3
2023-04-03T03:48:55.161Z,3.5
2023-04-03T03:50:03.515Z,3.5
2023-04-03T03:51:11.896Z,3.5
2023-04-03T03:52:20.450Z,3.4
2023-04-03T03:53:28.820Z,3.4
2023-04-03T03:54:37.217Z,3.4
2023-04-03T03:55:45.752Z,3.8
2023-04-03T03:56:54.119Z,3.8
2023-04-03T03:58:02.483Z,3.8
2023-04-03T03:59:11.051Z,4
2023-04-03T04:00:19.443Z,4
2023-04-03T04:01:27.806Z,4
2023-04-03T04:02:36.688Z,3.9
2023-04-03T04:03:44.888Z,3.9
2023-04-03T04:04:53.172Z,3.9
2023-04-03T04:06:01.802Z,4.3
2023-04-03T04:07:10.151Z,4.3
2023-04-03T04:08:18.510Z,4.3
2023-04-03T04:09:27.094Z,4.1
2023-04-03T04:10:35.472Z,4.1
2023-04-03T04:11:43.805Z,4.1
2023-04-03T04:12:52.454Z,4.5
2023-04-03T04:14:00.764Z,4.5
2023-04-03T04:15:09.086Z,4.5
2023-04-03T04:16:17.719Z,4.6
2023-04-03T04:17:26.069Z,4.6
2023-04-03T04:18:34.404Z,4.6
2023-04-03T04:19:43.006Z,4.6
2023-04-03T04:20:51.372Z,4.6
2023-04-03T04:21:59.747Z,4.6
2023-04-03T04:23:08.362Z,4.3
2023-04-03T04:24:16.745Z,4.3
2023-04-03T04:25:25.113Z,4.3
2023-04-03T04:26:33.700Z,4.3
2023-04-03T04:27:42.075Z,4.3
2023-04-03T04:28:50.429Z,4.3
2023-04-03T04:29:59.498Z,5.1
2023-04-03T04:31:07.299Z,5.1
2023-04-03T04:32:15.592Z,5.1
2023-04-03T04:33:24.120Z,5.3
2023-04-03T04:34:32.498Z,5.3
2023-04-03T04:35:40.929Z,5.3
2023-04-03T04:36:49.352Z,4.9
2023-04-03T04:37:57.635Z,4.9
2023-04-03T04:39:05.968Z,4.9
2023-04-03T04:40:14.481Z,5.1
2023-04-03T04:41:22.812Z,5.1
2023-04-03T04:42:31.170Z,5.1
2023-04-03T04:43:39.687Z,5.3
2023-04-03T04:44:48.012Z,5.3
2023-04-03T04:45:56.345Z,5.3
2023-04-03T04:47:04.851Z,5.1
2023-04-03T04:48:13.206Z,5.1
2023-04-03T04:49:21.504Z,5.1
2023-04-03T04:50:30.034Z,5.7
2023-04-03T04:51:48.712Z,5.7
2023-04-03T04:52:46.692Z,5.7
2023-04-03T04:53:56.108Z,10
2023-04-03T04:55:03.547Z,10
2023-04-03T04:56:11.860Z,10
2023-04-03T04:57:20.432Z,9.7
2023-04-03T04:58:28.735Z,9.7
2023-04-03T04:59:37.032Z,9.7
2023-04-03T05:00:45.558Z,5.2
2023-04-03T05:01:53.944Z,5.2
2023-04-03T05:03:02.234Z,5.2
2023-04-03T05:04:10.750Z,5.3
2023-04-03T05:05:19.098Z,5.3
2023-04-03T05:06:27.401Z,5.3
2023-04-03T05:07:35.933Z,5.4
2023-04-03T05:08:44.281Z,5.4
2023-04-03T05:09:52.590Z,5.4
2023-04-03T05:11:01.125Z,5
2023-04-03T05:12:09.439Z,5
2023-04-03T05:13:17.759Z,5
2023-04-03T05:14:26.317Z,8.7
2023-04-03T05:15:34.668Z,8.7
2023-04-03T05:16:42.967Z,8.7
2023-04-03T05:17:51.492Z,5.7
2023-04-03T05:18:59.802Z,5.7
2023-04-03T05:20:08.137Z,5.7
2023-04-03T05:21:16.673Z,5.1
2023-04-03T05:22:24.992Z,5.1
2023-04-03T05:23:33.315Z,5.1
2023-04-03T05:24:41.856Z,6
2023-04-03T05:25:50.193Z,6
2023-04-03T05:26:58.509Z,6
2023-04-03T05:28:07.033Z,5.2
2023-04-03T05:29:15.403Z,5.2
2023-04-03T05:30:23.714Z,5.2
2023-04-03T05:31:32.264Z,5.8
2023-04-03T05:32:40.582Z,5.8
2023-04-03T05:33:48.880Z,5.8
2023-04-03T05:34:58.875Z,6
2023-04-03T05:36:05.800Z,6
2023-04-03T05:37:14.056Z,6
2023-04-03T05:38:22.606Z,5.9
2023-04-03T05:39:30.936Z,5.9
2023-04-03T05:40:39.250Z,5.9
2023-04-03T05:41:47.780Z,6.1
2023-04-03T05:42:56.092Z,6.1
2023-04-03T05:44:04.444Z,6.1
2023-04-03T05:45:12.990Z,5.7
2023-04-03T05:46:21.349Z,5.7
2023-04-03T05:47:29.660Z,5.7
2023-04-03T05:48:38.203Z,6
2023-04-03T05:49:46.512Z,6
2023-04-03T05:50:56.504Z,6
2023-04-03T05:52:03.424Z,5.9
2023-04-03T05:53:11.747Z,5.9
2023-04-03T05:54:20.092Z,5.9
2023-04-03T05:55:28.622Z,6
2023-04-03T05:56:36.937Z,6
2023-04-03T05:57:45.244Z,6
2023-04-03T05:58:53.804Z,5.9
2023-04-03T06:00:02.164Z,5.9
2023-04-03T06:01:10.479Z,5.9
2023-04-03T06:02:19.082Z,6.2
2023-04-03T06:03:27.532Z,6.2
2023-04-03T06:04:35.826Z,6.2
2023-04-03T06:05:44.262Z,6.2
2023-04-03T06:06:52.636Z,6.2
2023-04-03T06:08:00.915Z,6.2
2023-04-03T06:09:09.437Z,5.8
2023-04-03T06:10:17.763Z,5.8
2023-04-03T06:11:26.099Z,5.8
2023-04-03T06:12:34.633Z,6.5
2023-04-03T06:13:42.964Z,6.5
2023-04-03T06:14:51.777Z,6.5
2023-04-03T06:16:00.367Z,6
2023-04-03T06:17:08.786Z,6
2023-04-03T06:18:17.047Z,6
2023-04-03T06:19:25.565Z,6.6
2023-04-03T06:20:33.884Z,6.6
2023-04-03T06:21:42.225Z,6.6
2023-04-03T06:22:50.772Z,6.5
2023-04-03T06:23:59.109Z,6.5
2023-04-03T06:25:07.433Z,6.5
2023-04-03T06:26:15.956Z,6.3
2023-04-03T06:27:24.294Z,6.3
2023-04-03T06:28:32.834Z,6.3
2023-04-03T06:29:41.164Z,6.7
2023-04-03T06:30:49.521Z,6.7
2023-04-03T06:31:57.815Z,6.7
2023-04-03T06:33:06.397Z,6.4
2023-04-03T06:34:14.906Z,6.4
2023-04-03T06:35:23.220Z,6.4
2023-04-03T06:36:31.758Z,6.1
2023-04-03T06:37:40.074Z,6.1
2023-04-03T06:38:48.399Z,6.1
2023-04-03T06:39:56.938Z,6.4
2023-04-03T06:41:05.282Z,6.4
2023-04-03T06:42:13.578Z,6.4
2023-04-03T06:43:23.481Z,5.9
2023-04-03T06:44:30.443Z,5.9
2023-04-03T06:45:39.092Z,5.9
2023-04-03T06:46:47.442Z,6.7
2023-04-03T06:47:55.750Z,6.7
2023-04-03T06:49:04.035Z,6.7
2023-04-03T06:50:12.611Z,21
2023-04-03T06:51:20.908Z,21
2023-04-03T06:52:29.218Z,21
2023-04-03T06:53:37.775Z,7
2023-04-03T06:54:46.110Z,7
2023-04-03T06:55:54.415Z,7
2023-04-03T06:57:03.004Z,5.4
2023-04-03T06:58:11.271Z,5.4
2023-04-03T06:59:19.605Z,5.4
2023-04-03T07:00:28.125Z,5.2
2023-04-03T07:01:36.450Z,5.2
2023-04-03T07:02:44.806Z,5.2
2023-04-03T07:03:53.291Z,44.5
2023-04-03T07:05:01.630Z,44.5
2023-04-03T07:06:09.962Z,44.5
2023-04-03T07:07:18.614Z,58.299999
2023-04-03T07:08:26.928Z,58.299999
2023-04-03T07:09:35.273Z,58.299999
2023-04-03T07:10:43.810Z,5
2023-04-03T07:11:52.245Z,5
2023-04-03T07:13:02.740Z,5
2023-04-03T07:14:11.301Z,7
2023-04-03T07:15:19.936Z,7
2023-04-03T07:16:28.244Z,7
2023-04-03T07:17:37.076Z,4.5
2023-04-03T07:18:45.653Z,4.5
2023-04-03T07:19:53.973Z,4.5
2023-04-03T07:21:02.520Z,5.3
2023-04-03T07:22:10.866Z,5.3
2023-04-03T07:23:19.165Z,5.3
2023-04-03T07:24:27.712Z,4.6
2023-04-03T07:25:36.165Z,4.6
2023-04-03T07:26:44.360Z,4.6
2023-04-03T07:27:57.417Z,4.4
2023-04-03T07:29:05.750Z,4.4
2023-04-03T07:30:14.080Z,4.4
2023-04-03T07:31:22.650Z,4.4
2023-04-03T07:32:31.320Z,4.4
2023-04-03T07:33:39.818Z,4.4
2023-04-03T07:34:48.593Z,4.1
2023-04-03T07:35:57.422Z,4.1
2023-04-03T07:37:06.075Z,4.1
2023-04-03T07:38:14.640Z,4.4
2023-04-03T07:39:23.041Z,4.4
2023-04-03T07:40:31.400Z,4.4
2023-04-03T07:41:39.929Z,21.5
2023-04-03T07:42:48.246Z,21.5
2023-04-03T07:43:56.590Z,21.5
2023-04-03T07:45:05.132Z,5
2023-04-03T07:46:13.464Z,5
2023-04-03T07:47:21.765Z,5
2023-04-03T07:48:30.305Z,3.7
2023-04-03T07:49:38.626Z,3.7
2023-04-03T07:50:46.936Z,3.7
2023-04-03T07:51:55.479Z,4
2023-04-03T07:53:03.774Z,4
2023-04-03T07:54:12.127Z,4
2023-04-03T07:55:20.654Z,4
2023-04-03T07:56:29.009Z,4
2023-04-03T07:57:37.447Z,4
2023-04-03T07:58:45.914Z,5.2
2023-04-03T07:59:54.254Z,5.2
2023-04-03T08:01:02.617Z,5.2
2023-04-03T08:02:11.212Z,4.3
2023-04-03T08:03:19.755Z,4.3
2023-04-03T08:04:27.956Z,4.3
2023-04-03T08:05:36.639Z,3.6
2023-04-03T08:06:46.752Z,3.6
2023-04-03T08:07:53.225Z,3.6
2023-04-03T08:09:01.863Z,5
2023-04-03T08:10:10.290Z,5
2023-04-03T08:11:18.569Z,5
2023-04-03T08:12:27.108Z,3.5
2023-04-03T08:13:35.440Z,3.5
2023-04-03T08:14:43.797Z,3.5
2023-04-03T08:15:52.354Z,3.9
2023-04-03T08:17:00.731Z,3.9
2023-04-03T08:18:09.043Z,3.9
2023-04-03T08:19:25.232Z,3.7
2023-04-03T08:20:25.945Z,3.7
2023-04-03T08:21:34.275Z,3.7
2023-04-03T08:22:42.840Z,3.3
2023-04-03T08:23:51.206Z,3.3
2023-04-03T08:24:59.829Z,3.3
2023-04-03T08:26:08.227Z,3.5
2023-04-03T08:27:16.538Z,3.5
2023-04-03T08:28:24.858Z,3.5
2023-04-03T08:29:34.359Z,3.6
2023-04-03T08:30:41.793Z,3.6
2023-04-03T08:31:50.107Z,3.6
2023-04-03T08:32:58.731Z,2.7
2023-04-03T08:34:06.973Z,2.7
2023-04-03T08:35:15.319Z,2.7
2023-04-03T08:36:23.900Z,7
2023-04-03T08:37:32.189Z,7
2023-04-03T08:38:40.557Z,7
2023-04-03T08:39:49.138Z,8.3
2023-04-03T08:40:57.489Z,8.3
2023-04-03T08:42:05.957Z,8.3
2023-04-03T08:43:14.445Z,5.5
2023-04-03T08:44:22.811Z,5.5
2023-04-03T08:45:31.144Z,5.5
2023-04-03T08:46:39.790Z,3.2
2023-04-03T08:47:48.113Z,3.2
2023-04-03T08:48:56.506Z,3.2
2023-04-03T08:50:05.084Z,2.8
2023-04-03T08:51:13.428Z,2.8
2023-04-03T08:52:21.841Z,2.8
2023-04-03T08:53:30.407Z,3.8
2023-04-03T08:54:38.815Z,3.8
2023-04-03T08:55:47.216Z,3.8
2023-04-03T08:56:55.795Z,3.1
2023-04-03T08:58:04.294Z,3.1
2023-04-03T08:59:12.525Z,3.1
2023-04-03T09:00:21.127Z,2.6
2023-04-03T09:01:29.453Z,2.6
2023-04-03T09:02:37.844Z,2.6
2023-04-03T09:03:46.392Z,2.9
2023-04-03T09:04:54.750Z,2.9
2023-04-03T09:06:03.119Z,2.9
2023-04-03T09:07:11.674Z,2.8
2023-04-03T09:08:20.007Z,2.8
2023-04-03T09:09:28.359Z,2.8
2023-04-03T09:10:36.946Z,2.5
2023-04-03T09:11:45.566Z,2.5
2023-04-03T09:12:53.920Z,2.5
2023-04-03T09:14:02.621Z,2.5
2023-04-03T09:15:10.892Z,2.5
2023-04-03T09:16:19.295Z,2.5
2023-04-03T09:17:27.859Z,3.2
2023-04-03T09:18:36.227Z,3.2
2023-04-03T09:19:44.656Z,3.2
2023-04-03T09:20:53.310Z,2.8
2023-04-03T09:22:01.654Z,2.8
2023-04-03T09:23:10.008Z,2.8
2023-04-03T09:24:18.606Z,3
2023-04-03T09:25:26.961Z,3
2023-04-03T09:26:35.362Z,3
2023-04-03T09:27:43.953Z,7.9
2023-04-03T09:28:52.319Z,7.9
2023-04-03T09:30:00.834Z,7.9
2023-04-03T09:31:09.290Z,4.2
2023-04-03T09:32:17.634Z,4.2
2023-04-03T09:33:26.001Z,4.2
2023-04-03T09:34:34.584Z,3.3
2023-04-03T09:35:47.897Z,3.3
2023-04-03T09:36:51.321Z,3.3
2023-04-03T09:37:59.860Z,2.6
2023-04-03T09:39:08.265Z,2.6
2023-04-03T09:40:16.675Z,2.6
2023-04-03T09:41:25.246Z,2.4
2023-04-03T09:42:33.616Z,2.4
2023-04-03T09:43:41.987Z,2.4
2023-04-03T09:44:50.533Z,2.2
2023-04-03T09:45:59.040Z,2.2
2023-04-03T09:47:07.323Z,2.2
2023-04-03T09:48:16.660Z,2
2023-04-03T09:49:24.210Z,2
2023-04-03T09:50:32.568Z,2
2023-04-03T09:51:41.178Z,2
2023-04-03T09:52:49.582Z,2
2023-04-03T09:53:57.967Z,2
2023-04-03T09:55:06.536Z,5
2023-04-03T09:56:14.884Z,5
2023-04-03T09:57:23.292Z,5
2023-04-03T09:58:39.412Z,2.3
2023-04-03T09:59:40.212Z,2.3
2023-04-03T10:00:48.578Z,2.3
2023-04-03T10:01:57.277Z,2.9
2023-04-03T10:03:06.100Z,2.9
2023-04-03T10:04:14.447Z,2.9
2023-04-03T10:05:22.997Z,2.1
2023-04-03T10:06:31.678Z,2.1
2023-04-03T10:07:41.192Z,2.1
2023-04-03T10:08:48.632Z,1.8
2023-04-03T10:09:57.002Z,1.8
2023-04-03T10:11:05.372Z,1.8
2023-04-03T10:12:13.920Z,2.7
2023-04-03T10:13:22.494Z,2.7
2023-04-03T10:14:30.619Z,2.7
2023-04-03T10:15:39.186Z,2.5
2023-04-03T10:16:47.625Z,2.5
2023-04-03T10:17:56.032Z,2.5
2023-04-03T10:19:04.475Z,1.9
2023-04-03T10:20:12.863Z,1.9
2023-04-03T10:21:27.327Z,1.9
2023-04-03T10:22:29.753Z,2.8
2023-04-03T10:23:38.087Z,2.8
2023-04-03T10:24:46.461Z,2.8
2023-04-03T10:25:55.046Z,1.4
2023-04-03T10:27:03.426Z,1.4
2023-04-03T10:28:11.764Z,1.4
2023-04-03T10:29:20.353Z,1.7
2023-04-03T10:30:28.689Z,1.7
2023-04-03T10:31:37.132Z,1.7
2023-04-03T10:32:45.643Z,1.3
2023-04-03T10:33:54.116Z,1.3
2023-04-03T10:35:04.847Z,1.3
2023-04-03T10:36:10.986Z,0.9
2023-04-03T10:37:19.231Z,0.9
2023-04-03T10:38:27.580Z,0.9
2023-04-03T10:39:36.131Z,1.1
2023-04-03T10:40:44.487Z,1.1
2023-04-03T10:41:55.899Z,1.1
2023-04-03T10:43:01.379Z,0.9
2023-04-03T10:44:09.724Z,0.9
2023-04-03T10:45:18.071Z,0.9
2023-04-03T10:46:26.638Z,1.1
2023-04-03T10:47:36.091Z,1.1
2023-04-03T10:48:43.293Z,1.1
2023-04-03T10:49:59.259Z,1.1
2023-04-03T10:51:00.271Z,1.1
2023-04-03T10:52:08.609Z,1.1
2023-04-03T10:53:17.192Z,0.9
2023-04-03T10:54:25.575Z,0.9
2023-04-03T10:55:33.913Z,0.9
2023-04-03T10:56:42.468Z,1.4
2023-04-03T10:57:50.863Z,1.4
2023-04-03T10:58:59.226Z,1.4
2023-04-03T11:00:07.781Z,1
2023-04-03T11:01:16.151Z,1
2023-04-03T11:02:24.565Z,1
2023-04-03T11:03:33.127Z,1
2023-04-03T11:04:41.449Z,1
2023-04-03T11:05:49.926Z,1
2023-04-03T11:06:58.363Z,1.3
2023-04-03T11:08:06.738Z,1.3
2023-04-03T11:09:15.106Z,1.3
2023-04-03T11:10:23.664Z,1.1
2023-04-03T11:11:32.048Z,1.1
2023-04-03T11:12:40.597Z,1.1
2023-04-03T11:13:49.176Z,1.4
2023-04-03T11:14:57.593Z,1.4
2023-04-03T11:16:06.002Z,1.4
2023-04-03T11:17:14.642Z,1.3
2023-04-03T11:18:23.071Z,1.3
2023-04-03T11:19:31.472Z,1.3
2023-04-03T11:20:40.086Z,1.1
2023-04-03T11:21:48.652Z,1.1
2023-04-03T11:22:56.920Z,1.1
2023-04-03T11:24:05.569Z,1.2
2023-04-03T11:25:13.994Z,1.2
2023-04-03T11:26:22.434Z,1.2
2023-04-03T11:27:31.126Z,1.2
2023-04-03T11:28:39.531Z,1.2
2023-04-03T11:29:47.920Z,1.2
2023-04-03T11:30:57.503Z,1
2023-04-03T11:32:05.010Z,1
2023-04-03T11:33:13.496Z,1
2023-04-03T11:34:22.084Z,1.2
2023-04-03T11:35:30.478Z,1.2
2023-04-03T11:36:38.943Z,1.2
2023-04-03T11:37:47.588Z,0.9
2023-04-03T11:38:55.913Z,0.9
2023-04-03T11:40:04.370Z,0.9
2023-04-03T11:41:12.990Z,1.4
2023-04-03T11:42:21.433Z,1.4
2023-04-03T11:43:29.848Z,1.4
2023-04-03T11:44:38.645Z,1.3
2023-04-03T11:45:46.984Z,1.3
2023-04-03T11:46:57.490Z,1.3
2023-04-03T11:48:13.267Z,1
2023-04-03T11:49:12.484Z,1
2023-04-03T11:50:20.970Z,1
2023-04-03T11:51:29.701Z,1.1
2023-04-03T11:52:38.124Z,1.1
2023-04-03T11:53:46.859Z,1.1
2023-04-03T11:54:55.476Z,0.9
2023-04-03T11:56:04.012Z,0.9
2023-04-03T11:57:12.502Z,0.9
2023-04-03T11:58:21.311Z,1.2
2023-04-03T11:59:29.792Z,1.2
2023-04-03T12:00:38.248Z,1.2
2023-04-03T12:01:46.949Z,1.2
2023-04-03T12:02:55.492Z,1.2
2023-04-03T12:04:04.009Z,1.2
2023-04-03T12:05:12.592Z,1.3
2023-04-03T12:06:21.049Z,1.3
2023-04-03T12:07:29.514Z,1.3
2023-04-03T12:08:38.263Z,0.9
2023-04-03T12:09:46.926Z,0.9
2023-04-03T12:10:55.351Z,0.9
2023-04-03T12:12:04.127Z,1.1
2023-04-03T12:13:12.589Z,1.1
2023-04-03T12:14:20.989Z,1.1
2023-04-03T12:15:29.648Z,1.1
2023-04-03T12:16:38.110Z,1.1
2023-04-03T12:17:46.606Z,1.1
2023-04-03T12:18:55.119Z,1.2
2023-04-03T12:20:03.578Z,1.2
2023-04-03T12:21:12.016Z,1.2
2023-04-03T12:22:20.629Z,1
2023-04-03T12:23:29.105Z,1
2023-04-03T12:24:37.486Z,1
2023-04-03T12:25:46.261Z,0.9
2023-04-03T12:26:54.571Z,0.9
2023-04-03T12:28:02.955Z,0.9
2023-04-03T12:29:11.581Z,1.1
2023-04-03T12:30:19.982Z,1.1
2023-04-03T12:31:28.426Z,1.1
2023-04-03T12:32:37.012Z,1.1
2023-04-03T12:33:45.452Z,1.1
2023-04-03T12:34:53.907Z,1.1
2023-04-03T12:36:02.615Z,1
2023-04-03T12:37:11.022Z,1
2023-04-03T12:38:19.501Z,1
2023-04-03T12:39:28.196Z,0.9
2023-04-03T12:40:36.882Z,0.9
2023-04-03T12:41:45.671Z,0.9
2023-04-03T12:42:54.195Z,0.9
2023-04-03T12:44:02.591Z,0.9
2023-04-03T12:45:11.079Z,0.9
2023-04-03T12:46:19.781Z,1.4
2023-04-03T12:47:28.312Z,1.4
2023-04-03T12:48:36.913Z,1.4
2023-04-03T12:49:45.567Z,1.1
2023-04-03T12:50:54.048Z,1.1
2023-04-03T12:52:02.503Z,1.1
2023-04-03T12:53:11.194Z,1
2023-04-03T12:54:19.775Z,1
2023-04-03T12:55:28.248Z,1
2023-04-03T12:56:36.898Z,1.5
2023-04-03T12:57:45.492Z,1.5
2023-04-03T12:58:53.932Z,1.5
2023-04-03T13:00:02.675Z,1.4
2023-04-03T13:01:11.200Z,1.4
2023-04-03T13:02:19.582Z,1.4
2023-04-03T13:03:28.422Z,1.6
2023-04-03T13:04:36.824Z,1.6
2023-04-03T13:05:45.357Z,1.6
2023-04-03T13:06:54.026Z,1.1
2023-04-03T13:08:02.442Z,1.1
2023-04-03T13:09:10.888Z,1.1
2023-04-03T13:10:19.590Z,0.8
2023-04-03T13:11:28.013Z,0.8
2023-04-03T13:12:36.450Z,0.8
2023-04-03T13:13:45.124Z,0.9
2023-04-03T13:14:53.581Z,0.9
2023-04-03T13:16:02.101Z,0.9
2023-04-03T13:17:10.662Z,1.3
2023-04-03T13:18:19.143Z,1.3
2023-04-03T13:19:28.342Z,1.3
2023-04-03T13:20:36.358Z,1.2
2023-04-03T13:21:44.741Z,1.2
2023-04-03T13:22:53.214Z,1.2
2023-04-03T13:24:11.844Z,1.5
2023-04-03T13:25:10.500Z,1.5
2023-04-03T13:26:18.943Z,1.5
2023-04-03T13:27:27.651Z,1.4
2023-04-03T13:28:36.062Z,1.4
2023-04-03T13:29:44.616Z,1.4
2023-04-03T13:30:53.144Z,1
2023-04-03T13:32:01.576Z,1
2023-04-03T13:33:09.993Z,1
2023-04-03T13:34:18.617Z,1.3
2023-04-03T13:35:27.001Z,1.3
2023-04-03T13:36:35.376Z,1.3
2023-04-03T13:37:44.020Z,1.4
2023-04-03T13:38:52.469Z,1.4
2023-04-03T13:40:00.885Z,1.4
2023-04-03T13:41:09.481Z,1.5
2023-04-03T13:42:17.875Z,1.5
2023-04-03T13:43:26.269Z,1.5
2023-04-03T13:44:34.873Z,1.2
2023-04-03T13:45:43.448Z,1.2
2023-04-03T13:46:51.663Z,1.2
2023-04-03T13:48:00.887Z,1.4
2023-04-03T13:49:08.777Z,1.4
2023-04-03T13:50:17.168Z,1.4
2023-04-03T13:51:25.783Z,1.3
2023-04-03T13:52:34.257Z,1.3
2023-04-03T13:53:42.661Z,1.3
2023-04-03T13:54:51.271Z,1.2
2023-04-03T13:56:00.342Z,1.2
2023-04-03T13:57:08.823Z,1.2
2023-04-03T13:58:17.425Z,1.4
2023-04-03T13:59:25.822Z,1.4
2023-04-03T14:00:34.178Z,1.4
2023-04-03T14:01:42.869Z,1.6
2023-04-03T14:02:51.128Z,1.6
2023-04-03T14:03:59.494Z,1.6
2023-04-03T14:05:08.092Z,1.1
2023-04-03T14:06:16.472Z,1.1
2023-04-03T14:07:24.782Z,1.1
2023-04-03T14:08:42.054Z,1.3
2023-04-03T14:09:41.789Z,1.3
2023-04-03T14:10:50.154Z,1.3
2023-04-03T14:11:58.729Z,1.4
2023-04-03T14:13:07.108Z,1.4
2023-04-03T14:14:15.531Z,1.4
2023-04-03T14:15:24.111Z,1.8
2023-04-03T14:16:32.482Z,1.8
2023-04-03T14:17:41.158Z,1.8
2023-04-03T14:18:49.727Z,1.5
2023-04-03T14:19:58.077Z,1.5
2023-04-03T14:21:06.447Z,1.5
2023-04-03T14:22:14.986Z,1.3
2023-04-03T14:23:23.345Z,1.3
2023-04-03T14:24:31.745Z,1.3
2023-04-03T14:25:40.289Z,1.4
2023-04-03T14:26:48.654Z,1.4
2023-04-03T14:27:57.060Z,1.4
2023-04-03T14:29:05.616Z,1.3
2023-04-03T14:30:13.936Z,1.3
2023-04-03T14:31:22.378Z,1.3
2023-04-03T14:32:30.922Z,2.2
2023-04-03T14:33:39.277Z,2.2
2023-04-03T14:34:47.627Z,2.2
2023-04-03T14:35:57.208Z,3.1
2023-04-03T14:37:04.593Z,3.1
2023-04-03T14:38:12.935Z,3.1
2023-04-03T14:39:21.475Z,1.6
2023-04-03T14:40:29.822Z,1.6
2023-04-03T14:41:38.183Z,1.6
2023-04-03T14:42:46.772Z,1.2
2023-04-03T14:43:55.093Z,1.2
2023-04-03T14:45:03.438Z,1.2
2023-04-03T14:46:12.037Z,1.8
2023-04-03T14:47:30.247Z,1.8
2023-04-03T14:48:28.864Z,1.8
2023-04-03T14:49:37.397Z,1.8
2023-04-03T14:50:54.785Z,1.8
2023-04-03T14:51:54.120Z,1.8
2023-04-03T14:53:02.684Z,2.4
2023-04-03T14:54:11.094Z,2.4
2023-04-03T14:55:19.413Z,2.4
2023-04-03T14:56:27.988Z,1.7
2023-04-03T14:57:36.402Z,1.7
2023-04-03T14:58:44.699Z,1.7
2023-04-03T14:59:53.261Z,1.5
2023-04-03T15:01:01.618Z,1.5
2023-04-03T15:02:10.010Z,1.5
2023-04-03T15:03:18.765Z,1.5
2023-04-03T15:04:27.147Z,1.5
2023-04-03T15:05:35.449Z,1.5
2023-04-03T15:06:44.003Z,3.5
2023-04-03T15:39:06.829Z,0
2023-04-03T15:40:15.144Z,0
2023-04-03T15:41:23.507Z,0
2023-04-03T15:42:32.067Z,1.8
2023-04-03T15:43:40.418Z,1.8
2023-04-03T15:44:48.828Z,1.8
2023-04-03T15:45:57.444Z,2.4
2023-04-03T15:47:05.736Z,2.4
2023-04-03T15:48:14.075Z,2.4
2023-04-03T15:49:22.656Z,1.6
2023-04-03T15:50:31.013Z,1.6
2023-04-03T15:51:39.369Z,1.6
2023-04-03T15:52:47.884Z,1.6
2023-04-03T15:53:56.230Z,1.6
2023-04-03T15:55:04.573Z,1.6
2023-04-03T15:56:13.117Z,1.7
2023-04-03T15:57:21.498Z,1.7
2023-04-03T15:58:29.835Z,1.7
2023-04-03T15:59:38.429Z,2
2023-04-03T16:00:46.738Z,2
2023-04-03T16:01:55.108Z,2
2023-04-03T16:03:03.698Z,2.3
2023-04-03T16:04:12.044Z,2.3
2023-04-03T16:05:20.397Z,2.3
2023-04-03T16:06:28.979Z,1.8
2023-04-03T16:07:37.306Z,1.8
2023-04-03T16:08:45.660Z,1.8
2023-04-03T16:09:54.233Z,1.7
2023-04-03T16:11:02.564Z,1.7
2023-04-03T16:12:10.888Z,1.7
2023-04-03T16:13:19.478Z,1.6
2023-04-03T16:14:27.808Z,1.6
2023-04-03T16:15:36.212Z,1.6
2023-04-03T16:16:44.689Z,1.8
2023-04-03T16:17:53.136Z,1.8
2023-04-03T16:19:01.365Z,1.8
2023-04-03T16:20:09.906Z,1.5
2023-04-03T16:21:18.253Z,1.5